sensor_id;sensor_type;location;lat;lon;timestamp;pressure;altitude;pressure_sealevel;temperature;humidity
13209;BME280;6669;42.678;23.332;2023-04-10T00:00:23;94662.53;;;7.36;100.00
13209;BME280;6669;42.678;23.332;2023-04-10T00:02:50;94658.69;;;7.40;100.00
13209;BME280;6669;42.678;23.332;2023-04-10T00:05:19;94661.09;;;7.42;100.00
13209;BME280;6669;42.678;23.332;2023-04-10T00:07:47;94660.00;;;7.44;100.00
13209;BME280;6669;42.678;23.332;2023-04-10T00:10:15;94651.53;;;7.34;100.00
13209;BME280;6669;42.678;23.332;2023-04-10T00:12:44;94654.09;;;7.34;100.00
13209;BME280;6669;42.678;23.332;2023-04-10T00:15:12;94659.88;;;7.28;100.00
13209;BME280;6669;42.678;23.332;2023-04-10T00:17:40;94651.16;;;7.29;100.00
13209;BME280;6669;42.678;23.332;2023-04-10T00:20:08;94643.25;;;7.30;100.00
13209;BME280;6669;42.678;23.332;2023-04-10T00:22:36;94651.22;;;7.37;100.00
13209;BME280;6669;42.678;23.332;2023-04-10T00:25:05;94648.00;;;7.43;100.00
13209;BME280;6669;42.678;23.332;2023-04-10T00:27:33;94640.22;;;7.35;100.00
13209;BME280;6669;42.678;23.332;2023-04-10T00:30:03;94639.19;;;7.28;100.00
13209;BME280;6669;42.678;23.332;2023-04-10T00:32:31;94644.84;;;7.23;100.00
13209;BME280;6669;42.678;23.332;2023-04-10T00:34:59;94639.78;;;7.22;100.00
13209;BME280;6669;42.678;23.332;2023-04-10T00:37:27;94644.59;;;7.16;100.00
13209;BME280;6669;42.678;23.332;2023-04-10T00:39:54;94642.09;;;7.25;100.00
13209;BME280;6669;42.678;23.332;2023-04-10T00:42:22;94638.47;;;7.17;100.00
13209;BME280;6669;42.678;23.332;2023-04-10T00:44:50;94630.94;;;7.24;100.00
13209;BME280;6669;42.678;23.332;2023-04-10T00:47:20;94635.44;;;7.22;100.00
13209;BME280;6669;42.678;23.332;2023-04-10T00:49:48;94633.56;;;7.32;100.00
13209;BME280;6669;42.678;23.332;2023-04-10T00:52:16;94637.72;;;7.25;100.00
13209;BME280;6669;42.678;23.332;2023-04-10T00:54:44;94639.69;;;7.31;100.00
13209;BME280;6669;42.678;23.332;2023-04-10T00:57:12;94639.91;;;7.38;100.00
13209;BME280;6669;42.678;23.332;2023-04-10T00:59:40;94636.69;;;7.36;100.00
13209;BME280;6669;42.678;23.332;2023-04-10T01:02:08;94639.91;;;7.38;100.00
13209;BME280;6669;42.678;23.332;2023-04-10T01:04:40;94632.31;;;7.36;100.00
13209;BME280;6669;42.678;23.332;2023-04-10T01:07:15;94625.06;;;7.40;100.00
13209;BME280;6669;42.678;23.332;2023-04-10T01:09:54;94624.09;;;7.41;100.00
13209;BME280;6669;42.678;23.332;2023-04-10T01:12:37;94624.75;;;7.43;100.00
13209;BME280;6669;42.678;23.332;2023-04-10T01:15:10;94619.28;;;7.46;100.00
13209;BME280;6669;42.678;23.332;2023-04-10T01:17:43;94609.38;;;7.42;100.00
13209;BME280;6669;42.678;23.332;2023-04-10T01:20:19;94619.13;;;7.48;100.00
13209;BME280;6669;42.678;23.332;2023-04-10T01:23:05;94616.25;;;7.51;100.00
13209;BME280;6669;42.678;23.332;2023-04-10T01:25:39;94621.06;;;7.46;100.00
13209;BME280;6669;42.678;23.332;2023-04-10T01:28:21;94611.16;;;7.41;100.00
13209;BME280;6669;42.678;23.332;2023-04-10T01:30:56;94614.25;;;7.45;100.00
13209;BME280;6669;42.678;23.332;2023-04-10T01:33:28;94615.50;;;7.41;100.00
13209;BME280;6669;42.678;23.332;2023-04-10T01:36:00;94612.94;;;7.41;100.00
13209;BME280;6669;42.678;23.332;2023-04-10T01:38:32;94608.84;;;7.30;100.00
13209;BME280;6669;42.678;23.332;2023-04-10T01:41:01;94608.75;;;7.40;100.00
13209;BME280;6669;42.678;23.332;2023-04-10T01:43:30;94617.09;;;7.33;100.00
13209;BME280;6669;42.678;23.332;2023-04-10T01:46:01;94620.03;;;7.39;100.00
13209;BME280;6669;42.678;23.332;2023-04-10T01:48:30;94611.47;;;7.38;100.00
13209;BME280;6669;42.678;23.332;2023-04-10T01:50:59;94617.66;;;7.45;100.00
13209;BME280;6669;42.678;23.332;2023-04-10T01:53:27;94628.16;;;7.44;100.00
13209;BME280;6669;42.678;23.332;2023-04-10T01:55:56;94619.22;;;7.38;100.00
13209;BME280;6669;42.678;23.332;2023-04-10T01:58:24;94617.97;;;7.42;100.00
13209;BME280;6669;42.678;23.332;2023-04-10T02:00:53;94622.31;;;7.42;100.00
13209;BME280;6669;42.678;23.332;2023-04-10T02:03:22;94620.41;;;7.44;100.00
13209;BME280;6669;42.678;23.332;2023-04-10T02:05:58;94616.34;;;7.41;100.00
13209;BME280;6669;42.678;23.332;2023-04-10T02:08:33;94615.41;;;7.50;100.00
13209;BME280;6669;42.678;23.332;2023-04-10T02:11:06;94607.31;;;7.45;100.00
13209;BME280;6669;42.678;23.332;2023-04-10T02:13:37;94608.13;;;7.46;100.00
13209;BME280;6669;42.678;23.332;2023-04-10T02:16:07;94594.69;;;7.42;100.00
13209;BME280;6669;42.678;23.332;2023-04-10T02:18:39;94592.09;;;7.42;100.00
13209;BME280;6669;42.678;23.332;2023-04-10T02:21:08;94597.78;;;7.46;100.00
13209;BME280;6669;42.678;23.332;2023-04-10T02:23:36;94586.78;;;7.44;100.00
13209;BME280;6669;42.678;23.332;2023-04-10T02:26:07;94589.00;;;7.39;100.00
13209;BME280;6669;42.678;23.332;2023-04-10T02:28:36;94579.47;;;7.39;100.00
13209;BME280;6669;42.678;23.332;2023-04-10T02:31:05;94576.25;;;7.37;100.00
13209;BME280;6669;42.678;23.332;2023-04-10T02:33:33;94582.72;;;7.41;100.00
13209;BME280;6669;42.678;23.332;2023-04-10T02:36:03;94583.88;;;7.47;100.00
13209;BME280;6669;42.678;23.332;2023-04-10T02:38:31;94570.75;;;7.40;100.00
13209;BME280;6669;42.678;23.332;2023-04-10T02:40:58;94571.06;;;7.37;100.00
13209;BME280;6669;42.678;23.332;2023-04-10T02:43:26;94578.47;;;7.32;100.00
13209;BME280;6669;42.678;23.332;2023-04-10T02:45:55;94570.66;;;7.24;100.00
13209;BME280;6669;42.678;23.332;2023-04-10T02:48:23;94568.53;;;7.19;100.00
13209;BME280;6669;42.678;23.332;2023-04-10T02:50:55;94567.22;;;7.15;100.00
13209;BME280;6669;42.678;23.332;2023-04-10T02:53:24;94562.78;;;7.07;100.00
13209;BME280;6669;42.678;23.332;2023-04-10T02:55:52;94556.59;;;7.00;100.00
13209;BME280;6669;42.678;23.332;2023-04-10T02:58:21;94559.19;;;7.00;100.00
13209;BME280;6669;42.678;23.332;2023-04-10T03:00:49;94555.25;;;6.87;100.00
13209;BME280;6669;42.678;23.332;2023-04-10T03:03:17;94561.53;;;6.85;100.00
13209;BME280;6669;42.678;23.332;2023-04-10T03:05:46;94560.09;;;6.91;100.00
13209;BME280;6669;42.678;23.332;2023-04-10T03:08:15;94560.25;;;6.89;100.00
13209;BME280;6669;42.678;23.332;2023-04-10T03:10:45;94563.28;;;6.84;100.00
13209;BME280;6669;42.678;23.332;2023-04-10T03:13:14;94554.53;;;6.77;100.00
13209;BME280;6669;42.678;23.332;2023-04-10T03:15:42;94556.44;;;6.75;100.00
13209;BME280;6669;42.678;23.332;2023-04-10T03:18:11;94561.91;;;6.72;100.00
13209;BME280;6669;42.678;23.332;2023-04-10T03:20:39;94562.78;;;6.63;100.00
13209;BME280;6669;42.678;23.332;2023-04-10T03:23:10;94563.69;;;6.53;100.00
13209;BME280;6669;42.678;23.332;2023-04-10T03:25:38;94568.34;;;6.50;100.00
13209;BME280;6669;42.678;23.332;2023-04-10T03:28:08;94567.81;;;6.46;100.00
13209;BME280;6669;42.678;23.332;2023-04-10T03:30:36;94569.75;;;6.44;100.00
13209;BME280;6669;42.678;23.332;2023-04-10T03:33:04;94570.19;;;6.40;100.00
13209;BME280;6669;42.678;23.332;2023-04-10T03:35:32;94570.91;;;6.32;100.00
13209;BME280;6669;42.678;23.332;2023-04-10T03:38:00;94572.09;;;6.19;100.00
13209;BME280;6669;42.678;23.332;2023-04-10T03:40:28;94572.59;;;6.23;100.00
13209;BME280;6669;42.678;23.332;2023-04-10T03:42:56;94572.09;;;6.19;100.00
13209;BME280;6669;42.678;23.332;2023-04-10T03:45:26;94575.94;;;6.15;100.00
13209;BME280;6669;42.678;23.332;2023-04-10T03:47:54;94575.75;;;5.99;100.00
13209;BME280;6669;42.678;23.332;2023-04-10T03:50:22;94581.97;;;6.06;100.00
13209;BME280;6669;42.678;23.332;2023-04-10T03:52:50;94581.03;;;5.97;100.00
13209;BME280;6669;42.678;23.332;2023-04-10T03:55:18;94585.78;;;6.02;100.00
13209;BME280;6669;42.678;23.332;2023-04-10T03:57:46;94580.66;;;5.92;100.00
13209;BME280;6669;42.678;23.332;2023-04-10T04:00:15;94584.41;;;5.98;100.00
13209;BME280;6669;42.678;23.332;2023-04-10T04:02:45;94578.59;;;5.96;100.00
13209;BME280;6669;42.678;23.332;2023-04-10T04:05:13;94584.72;;;5.95;100.00
13209;BME280;6669;42.678;23.332;2023-04-10T04:07:41;94586.59;;;6.02;100.00
13209;BME280;6669;42.678;23.332;2023-04-10T04:10:09;94565.59;;;5.87;100.00
13209;BME280;6669;42.678;23.332;2023-04-10T04:12:37;94591.50;;;5.96;100.00
13209;BME280;6669;42.678;23.332;2023-04-10T04:15:06;94593.25;;;6.05;100.00
13209;BME280;6669;42.678;23.332;2023-04-10T04:17:34;94595.13;;;6.03;100.00
13209;BME280;6669;42.678;23.332;2023-04-10T04:20:04;94590.94;;;6.02;100.00
13209;BME280;6669;42.678;23.332;2023-04-10T04:22:32;94586.34;;;5.96;100.00
13209;BME280;6669;42.678;23.332;2023-04-10T04:25:00;94587.94;;;5.97;100.00
13209;BME280;6669;42.678;23.332;2023-04-10T04:27:28;94590.47;;;6.16;100.00
13209;BME280;6669;42.678;23.332;2023-04-10T04:29:56;94589.78;;;6.14;100.00
13209;BME280;6669;42.678;23.332;2023-04-10T04:32:24;94592.31;;;6.24;100.00
13209;BME280;6669;42.678;23.332;2023-04-10T04:34:52;94588.78;;;6.25;100.00
13209;BME280;6669;42.678;23.332;2023-04-10T04:37:21;94587.22;;;6.32;100.00
13209;BME280;6669;42.678;23.332;2023-04-10T04:39:49;94590.78;;;6.49;100.00
13209;BME280;6669;42.678;23.332;2023-04-10T04:42:17;94594.31;;;6.48;100.00
13209;BME280;6669;42.678;23.332;2023-04-10T04:44:45;94596.97;;;6.57;100.00
13209;BME280;6669;42.678;23.332;2023-04-10T04:47:13;94595.63;;;6.52;100.00
13209;BME280;6669;42.678;23.332;2023-04-10T04:49:41;94611.13;;;6.52;100.00
13209;BME280;6669;42.678;23.332;2023-04-10T04:52:09;94603.84;;;6.66;100.00
13209;BME280;6669;42.678;23.332;2023-04-10T04:54:38;94604.28;;;6.61;100.00
13209;BME280;6669;42.678;23.332;2023-04-10T04:57:06;94608.28;;;6.56;100.00
13209;BME280;6669;42.678;23.332;2023-04-10T04:59:34;94609.72;;;6.76;100.00
13209;BME280;6669;42.678;23.332;2023-04-10T05:02:03;94612.84;;;6.80;100.00
13209;BME280;6669;42.678;23.332;2023-04-10T05:04:31;94616.66;;;6.76;100.00
13209;BME280;6669;42.678;23.332;2023-04-10T05:06:59;94615.91;;;6.83;100.00
13209;BME280;6669;42.678;23.332;2023-04-10T05:09:27;94623.53;;;6.85;100.00
13209;BME280;6669;42.678;23.332;2023-04-10T05:11:56;94620.50;;;6.90;100.00
13209;BME280;6669;42.678;23.332;2023-04-10T05:14:24;94619.31;;;7.02;100.00
13209;BME280;6669;42.678;23.332;2023-04-10T05:16:52;94611.09;;;7.07;100.00
13209;BME280;6669;42.678;23.332;2023-04-10T05:19:20;94624.22;;;7.13;100.00
13209;BME280;6669;42.678;23.332;2023-04-10T05:21:49;94621.06;;;7.19;100.00
13209;BME280;6669;42.678;23.332;2023-04-10T05:24:17;94617.88;;;7.26;100.00
13209;BME280;6669;42.678;23.332;2023-04-10T05:26:45;94622.38;;;7.24;100.00
13209;BME280;6669;42.678;23.332;2023-04-10T05:29:14;94622.69;;;7.20;100.00
13209;BME280;6669;42.678;23.332;2023-04-10T05:31:42;94623.38;;;7.31;100.00
13209;BME280;6669;42.678;23.332;2023-04-10T05:34:11;94620.31;;;7.35;100.00
13209;BME280;6669;42.678;23.332;2023-04-10T05:36:39;94621.34;;;7.43;100.00
13209;BME280;6669;42.678;23.332;2023-04-10T05:39:07;94615.91;;;7.46;100.00
13209;BME280;6669;42.678;23.332;2023-04-10T05:41:35;94616.88;;;7.53;100.00
13209;BME280;6669;42.678;23.332;2023-04-10T05:44:03;94620.31;;;7.62;100.00
13209;BME280;6669;42.678;23.332;2023-04-10T05:46:32;94622.97;;;7.70;100.00
13209;BME280;6669;42.678;23.332;2023-04-10T05:49:00;94624.97;;;7.84;100.00
13209;BME280;6669;42.678;23.332;2023-04-10T05:51:28;94622.41;;;7.93;100.00
13209;BME280;6669;42.678;23.332;2023-04-10T05:53:57;94631.34;;;7.98;100.00
13209;BME280;6669;42.678;23.332;2023-04-10T05:56:25;94634.63;;;8.09;100.00
13209;BME280;6669;42.678;23.332;2023-04-10T05:58:53;94633.66;;;8.10;100.00
13209;BME280;6669;42.678;23.332;2023-04-10T06:01:21;94628.97;;;8.13;100.00
13209;BME280;6669;42.678;23.332;2023-04-10T06:03:51;94631.22;;;8.08;100.00
13209;BME280;6669;42.678;23.332;2023-04-10T06:06:19;94636.75;;;8.13;100.00
13209;BME280;6669;42.678;23.332;2023-04-10T06:08:47;94631.25;;;8.16;100.00
13209;BME280;6669;42.678;23.332;2023-04-10T06:11:15;94630.78;;;8.29;100.00
13209;BME280;6669;42.678;23.332;2023-04-10T06:13:44;94635.69;;;8.41;100.00
13209;BME280;6669;42.678;23.332;2023-04-10T06:16:12;94636.34;;;8.43;100.00
13209;BME280;6669;42.678;23.332;2023-04-10T06:18:42;94621.34;;;8.46;100.00
13209;BME280;6669;42.678;23.332;2023-04-10T06:21:11;94625.22;;;8.50;100.00
13209;BME280;6669;42.678;23.332;2023-04-10T06:23:39;94625.72;;;8.54;100.00
13209;BME280;6669;42.678;23.332;2023-04-10T06:26:08;94633.19;;;8.65;100.00
13209;BME280;6669;42.678;23.332;2023-04-10T06:28:36;94623.31;;;8.77;100.00
13209;BME280;6669;42.678;23.332;2023-04-10T06:31:05;94624.94;;;8.87;100.00
13209;BME280;6669;42.678;23.332;2023-04-10T06:33:33;94618.78;;;8.88;100.00
13209;BME280;6669;42.678;23.332;2023-04-10T06:36:04;94618.44;;;8.91;100.00
13209;BME280;6669;42.678;23.332;2023-04-10T06:38:33;94620.41;;;8.97;100.00
13209;BME280;6669;42.678;23.332;2023-04-10T06:41:04;94626.22;;;9.07;100.00
13209;BME280;6669;42.678;23.332;2023-04-10T06:43:33;94626.41;;;9.14;100.00
13209;BME280;6669;42.678;23.332;2023-04-10T06:46:02;94631.59;;;9.22;100.00
13209;BME280;6669;42.678;23.332;2023-04-10T06:48:30;94628.03;;;9.23;100.00
13209;BME280;6669;42.678;23.332;2023-04-10T06:50:58;94630.13;;;9.28;100.00
13209;BME280;6669;42.678;23.332;2023-04-10T06:53:27;94642.75;;;9.31;100.00
13209;BME280;6669;42.678;23.332;2023-04-10T06:55:57;94638.22;;;9.41;100.00
13209;BME280;6669;42.678;23.332;2023-04-10T06:58:29;94641.13;;;9.30;100.00
13209;BME280;6669;42.678;23.332;2023-04-10T07:01:01;94640.63;;;9.43;100.00
13209;BME280;6669;42.678;23.332;2023-04-10T07:03:30;94637.25;;;9.34;100.00
13209;BME280;6669;42.678;23.332;2023-04-10T07:05:59;94639.50;;;9.45;100.00
13209;BME280;6669;42.678;23.332;2023-04-10T07:08:28;94644.56;;;9.30;100.00
13209;BME280;6669;42.678;23.332;2023-04-10T07:10:58;94644.38;;;9.40;100.00
13209;BME280;6669;42.678;23.332;2023-04-10T07:13:26;94644.53;;;9.55;100.00
13209;BME280;6669;42.678;23.332;2023-04-10T07:15:54;94640.13;;;9.64;100.00
13209;BME280;6669;42.678;23.332;2023-04-10T07:18:21;94641.88;;;9.72;100.00
13209;BME280;6669;42.678;23.332;2023-04-10T07:20:50;94640.91;;;9.73;100.00
13209;BME280;6669;42.678;23.332;2023-04-10T07:23:17;94628.59;;;9.58;100.00
13209;BME280;6669;42.678;23.332;2023-04-10T07:25:46;94641.75;;;9.65;100.00
13209;BME280;6669;42.678;23.332;2023-04-10T07:28:15;94642.06;;;9.70;100.00
13209;BME280;6669;42.678;23.332;2023-04-10T07:30:43;94648.41;;;9.68;100.00
13209;BME280;6669;42.678;23.332;2023-04-10T07:33:11;94647.88;;;9.80;100.00
13209;BME280;6669;42.678;23.332;2023-04-10T07:35:39;94643.84;;;9.70;100.00
13209;BME280;6669;42.678;23.332;2023-04-10T07:38:07;94637.53;;;9.64;100.00
13209;BME280;6669;42.678;23.332;2023-04-10T07:40:36;94643.88;;;9.61;100.00
13209;BME280;6669;42.678;23.332;2023-04-10T07:43:03;94648.38;;;9.76;100.00
13209;BME280;6669;42.678;23.332;2023-04-10T07:45:33;94649.28;;;9.91;100.00
13209;BME280;6669;42.678;23.332;2023-04-10T07:48:01;94645.84;;;10.07;100.00
13209;BME280;6669;42.678;23.332;2023-04-10T07:50:29;94646.81;;;10.14;100.00
13209;BME280;6669;42.678;23.332;2023-04-10T07:52:57;94642.09;;;10.18;100.00
13209;BME280;6669;42.678;23.332;2023-04-10T07:55:29;94642.41;;;10.15;100.00
13209;BME280;6669;42.678;23.332;2023-04-10T07:57:56;94647.91;;;10.20;100.00
13209;BME280;6669;42.678;23.332;2023-04-10T08:00:24;94646.53;;;10.41;100.00
13209;BME280;6669;42.678;23.332;2023-04-10T08:02:54;94647.09;;;10.59;100.00
13209;BME280;6669;42.678;23.332;2023-04-10T08:05:22;94640.53;;;10.72;100.00
13209;BME280;6669;42.678;23.332;2023-04-10T08:07:51;94637.94;;;10.72;100.00
13209;BME280;6669;42.678;23.332;2023-04-10T08:10:19;94643.28;;;10.70;100.00
13209;BME280;6669;42.678;23.332;2023-04-10T08:12:47;94646.19;;;10.75;100.00
13209;BME280;6669;42.678;23.332;2023-04-10T08:15:16;94627.69;;;10.70;100.00
13209;BME280;6669;42.678;23.332;2023-04-10T08:17:44;94642.41;;;10.55;100.00
13209;BME280;6669;42.678;23.332;2023-04-10T08:20:14;94642.09;;;10.50;100.00
13209;BME280;6669;42.678;23.332;2023-04-10T08:22:41;94641.69;;;10.29;100.00
13209;BME280;6669;42.678;23.332;2023-04-10T08:25:09;94642.97;;;10.42;100.00
13209;BME280;6669;42.678;23.332;2023-04-10T08:27:37;94645.38;;;10.43;100.00
13209;BME280;6669;42.678;23.332;2023-04-10T08:30:06;94641.78;;;10.53;100.00
13209;BME280;6669;42.678;23.332;2023-04-10T08:32:35;94642.59;;;10.53;100.00
13209;BME280;6669;42.678;23.332;2023-04-10T08:35:03;94636.19;;;10.64;100.00
13209;BME280;6669;42.678;23.332;2023-04-10T08:37:33;94633.13;;;10.60;100.00
13209;BME280;6669;42.678;23.332;2023-04-10T08:40:01;94639.03;;;10.77;100.00
13209;BME280;6669;42.678;23.332;2023-04-10T08:42:29;94646.19;;;10.75;100.00
13209;BME280;6669;42.678;23.332;2023-04-10T08:45:00;94637.88;;;10.80;100.00
13209;BME280;6669;42.678;23.332;2023-04-10T08:47:35;94637.97;;;10.87;100.00
13209;BME280;6669;42.678;23.332;2023-04-10T08:50:06;94632.22;;;11.00;100.00
13209;BME280;6669;42.678;23.332;2023-04-10T08:52:37;94636.09;;;11.04;100.00
13209;BME280;6669;42.678;23.332;2023-04-10T08:55:11;94639.03;;;11.01;100.00
13209;BME280;6669;42.678;23.332;2023-04-10T08:57:40;94629.66;;;10.91;100.00
13209;BME280;6669;42.678;23.332;2023-04-10T09:00:25;94622.16;;;10.73;100.00
13209;BME280;6669;42.678;23.332;2023-04-10T09:02:53;94627.63;;;11.02;100.00
13209;BME280;6669;42.678;23.332;2023-04-10T09:05:25;94618.09;;;11.17;100.00
13209;BME280;6669;42.678;23.332;2023-04-10T09:07:55;94621.88;;;11.29;100.00
13209;BME280;6669;42.678;23.332;2023-04-10T09:10:23;94624.72;;;11.05;100.00
13209;BME280;6669;42.678;23.332;2023-04-10T09:12:52;94619.25;;;11.15;100.00
13209;BME280;6669;42.678;23.332;2023-04-10T09:15:21;94610.91;;;11.19;100.00
13209;BME280;6669;42.678;23.332;2023-04-10T09:17:59;94610.25;;;11.40;100.00
13209;BME280;6669;42.678;23.332;2023-04-10T09:20:30;94616.91;;;11.43;100.00
13209;BME280;6669;42.678;23.332;2023-04-10T09:23:00;94601.38;;;11.50;100.00
13209;BME280;6669;42.678;23.332;2023-04-10T09:25:32;94601.16;;;11.36;100.00
13209;BME280;6669;42.678;23.332;2023-04-10T09:28:02;94612.94;;;11.47;100.00
13209;BME280;6669;42.678;23.332;2023-04-10T09:30:35;94599.25;;;11.30;100.00
13209;BME280;6669;42.678;23.332;2023-04-10T09:33:21;94609.63;;;11.38;100.00
13209;BME280;6669;42.678;23.332;2023-04-10T09:35:49;94605.94;;;11.48;100.00
13209;BME280;6669;42.678;23.332;2023-04-10T09:38:20;94606.59;;;11.50;100.00
13209;BME280;6669;42.678;23.332;2023-04-10T09:40:48;94603.09;;;11.57;100.00
13209;BME280;6669;42.678;23.332;2023-04-10T09:43:21;94605.44;;;11.67;100.00
13209;BME280;6669;42.678;23.332;2023-04-10T09:45:50;94598.34;;;11.61;100.00
13209;BME280;6669;42.678;23.332;2023-04-10T09:48:20;94594.53;;;11.49;100.00
13209;BME280;6669;42.678;23.332;2023-04-10T09:50:49;94597.78;;;11.51;100.00
13209;BME280;6669;42.678;23.332;2023-04-10T09:53:20;94593.91;;;11.47;100.00
13209;BME280;6669;42.678;23.332;2023-04-10T09:55:48;94604.97;;;11.49;100.00
13209;BME280;6669;42.678;23.332;2023-04-10T09:58:17;94583.28;;;11.18;100.00
13209;BME280;6669;42.678;23.332;2023-04-10T10:00:47;94589.59;;;11.24;100.00
13209;BME280;6669;42.678;23.332;2023-04-10T10:03:17;94599.72;;;11.34;100.00
13209;BME280;6669;42.678;23.332;2023-04-10T10:05:47;94588.91;;;11.60;100.00
13209;BME280;6669;42.678;23.332;2023-04-10T10:08:16;94588.53;;;11.93;100.00
13209;BME280;6669;42.678;23.332;2023-04-10T10:10:47;94584.34;;;12.07;99.40
13209;BME280;6669;42.678;23.332;2023-04-10T10:13:23;94588.13;;;12.04;96.10
13209;BME280;6669;42.678;23.332;2023-04-10T10:15:58;94573.25;;;11.90;94.72
13209;BME280;6669;42.678;23.332;2023-04-10T10:18:33;94581.16;;;12.12;93.88
13209;BME280;6669;42.678;23.332;2023-04-10T10:21:04;94581.16;;;12.12;95.42
13209;BME280;6669;42.678;23.332;2023-04-10T10:23:35;94575.97;;;11.82;91.58
13209;BME280;6669;42.678;23.332;2023-04-10T10:26:06;94568.97;;;11.82;95.55
13209;BME280;6669;42.678;23.332;2023-04-10T10:28:34;94565.81;;;11.72;95.17
13209;BME280;6669;42.678;23.332;2023-04-10T10:31:03;94549.22;;;11.58;96.96
13209;BME280;6669;42.678;23.332;2023-04-10T10:33:34;94555.97;;;11.67;96.17
13209;BME280;6669;42.678;23.332;2023-04-10T10:36:03;94564.56;;;11.68;98.86
13209;BME280;6669;42.678;23.332;2023-04-10T10:38:31;94554.75;;;12.15;99.07
13209;BME280;6669;42.678;23.332;2023-04-10T10:41:08;94545.44;;;12.64;94.90
13209;BME280;6669;42.678;23.332;2023-04-10T10:43:48;94553.88;;;12.87;90.42
13209;BME280;6669;42.678;23.332;2023-04-10T10:46:22;94544.81;;;12.83;89.17
13209;BME280;6669;42.678;23.332;2023-04-10T10:48:57;94547.59;;;13.03;88.68
13209;BME280;6669;42.678;23.332;2023-04-10T10:51:43;94542.97;;;13.05;86.40
13209;BME280;6669;42.678;23.332;2023-04-10T10:54:28;94538.75;;;13.04;86.30
13209;BME280;6669;42.678;23.332;2023-04-10T10:56:58;94541.63;;;12.88;86.99
13209;BME280;6669;42.678;23.332;2023-04-10T10:59:54;94540.78;;;12.81;89.61
13209;BME280;6669;42.678;23.332;2023-04-10T11:02:25;94537.84;;;12.90;88.52
13209;BME280;6669;42.678;23.332;2023-04-10T11:04:53;94526.13;;;12.80;85.67
13209;BME280;6669;42.678;23.332;2023-04-10T11:07:21;94516.75;;;13.14;83.04
13209;BME280;6669;42.678;23.332;2023-04-10T11:10:09;94520.22;;;13.91;80.09
13209;BME280;6669;42.678;23.332;2023-04-10T11:13:13;94517.00;;;14.64;76.11
13209;BME280;6669;42.678;23.332;2023-04-10T11:15:42;94515.59;;;15.22;71.52
13209;BME280;6669;42.678;23.332;2023-04-10T11:18:10;94513.47;;;15.91;69.31
13209;BME280;6669;42.678;23.332;2023-04-10T11:21:07;94507.22;;;15.79;64.91
13209;BME280;6669;42.678;23.332;2023-04-10T11:23:36;94494.19;;;15.52;65.76
13209;BME280;6669;42.678;23.332;2023-04-10T11:26:07;94497.31;;;14.82;66.58
13209;BME280;6669;42.678;23.332;2023-04-10T11:28:39;94506.69;;;14.36;70.39
13209;BME280;6669;42.678;23.332;2023-04-10T11:31:14;94500.44;;;13.75;72.44
13209;BME280;6669;42.678;23.332;2023-04-10T11:33:44;94499.91;;;13.45;77.19
13209;BME280;6669;42.678;23.332;2023-04-10T11:36:13;94492.31;;;12.93;76.77
13209;BME280;6669;42.678;23.332;2023-04-10T11:38:53;94502.53;;;12.66;80.92
13209;BME280;6669;42.678;23.332;2023-04-10T11:41:26;94495.34;;;12.47;87.16
13209;BME280;6669;42.678;23.332;2023-04-10T11:43:55;94497.75;;;12.70;88.85
13209;BME280;6669;42.678;23.332;2023-04-10T11:46:24;94489.72;;;13.28;85.46
13209;BME280;6669;42.678;23.332;2023-04-10T11:48:52;94498.25;;;13.72;81.22
13209;BME280;6669;42.678;23.332;2023-04-10T11:51:21;94502.06;;;13.76;75.86
13209;BME280;6669;42.678;23.332;2023-04-10T11:54:03;94497.41;;;13.65;74.64
13209;BME280;6669;42.678;23.332;2023-04-10T11:56:31;94494.75;;;13.58;74.72
13209;BME280;6669;42.678;23.332;2023-04-10T11:59:01;94494.91;;;13.50;75.36
13209;BME280;6669;42.678;23.332;2023-04-10T12:01:33;94491.44;;;13.43;77.44
13209;BME280;6669;42.678;23.332;2023-04-10T12:04:01;94494.66;;;13.38;76.67
13209;BME280;6669;42.678;23.332;2023-04-10T12:06:29;94486.88;;;13.23;75.57
13209;BME280;6669;42.678;23.332;2023-04-10T12:08:57;94486.19;;;13.07;76.92
13209;BME280;6669;42.678;23.332;2023-04-10T12:11:25;94493.84;;;12.81;77.92
13209;BME280;6669;42.678;23.332;2023-04-10T12:13:56;94492.31;;;12.93;80.20
13209;BME280;6669;42.678;23.332;2023-04-10T12:16:26;94482.25;;;12.62;81.92
13209;BME280;6669;42.678;23.332;2023-04-10T12:18:54;94502.13;;;12.41;88.70
13209;BME280;6669;42.678;23.332;2023-04-10T12:21:23;94508.44;;;11.80;100.00
13209;BME280;6669;42.678;23.332;2023-04-10T12:23:51;94495.06;;;11.08;100.00
13209;BME280;6669;42.678;23.332;2023-04-10T12:26:19;94520.38;;;10.61;100.00
13209;BME280;6669;42.678;23.332;2023-04-10T12:28:52;94518.53;;;10.15;100.00
13209;BME280;6669;42.678;23.332;2023-04-10T12:31:30;94525.13;;;9.95;100.00
13209;BME280;6669;42.678;23.332;2023-04-10T12:33:59;94523.56;;;9.86;100.00
13209;BME280;6669;42.678;23.332;2023-04-10T12:36:28;94519.09;;;9.71;100.00
13209;BME280;6669;42.678;23.332;2023-04-10T12:38:58;94518.16;;;9.56;100.00
13209;BME280;6669;42.678;23.332;2023-04-10T12:41:28;94507.28;;;9.21;100.00
13209;BME280;6669;42.678;23.332;2023-04-10T12:44:07;94496.13;;;8.95;100.00
13209;BME280;6669;42.678;23.332;2023-04-10T12:46:37;94493.41;;;8.72;100.00
13209;BME280;6669;42.678;23.332;2023-04-10T12:49:09;94502.31;;;8.78;100.00
13209;BME280;6669;42.678;23.332;2023-04-10T12:51:44;94495.81;;;8.90;100.00
13209;BME280;6669;42.678;23.332;2023-04-10T12:54:29;94503.53;;;9.15;100.00
13209;BME280;6669;42.678;23.332;2023-04-10T12:56:57;94497.50;;;9.39;100.00
13209;BME280;6669;42.678;23.332;2023-04-10T12:59:26;94499.31;;;9.70;100.00
13209;BME280;6669;42.678;23.332;2023-04-10T13:01:56;94500.28;;;10.01;100.00
13209;BME280;6669;42.678;23.332;2023-04-10T13:04:24;94487.50;;;10.22;100.00
13209;BME280;6669;42.678;23.332;2023-04-10T13:06:52;94494.13;;;10.71;100.00
13209;BME280;6669;42.678;23.332;2023-04-10T13:09:20;94488.13;;;11.24;100.00
13209;BME280;6669;42.678;23.332;2023-04-10T13:11:50;94487.19;;;11.47;100.00